Main page
METAR-TAF:

METAR-TAF

Airports :

Augsburg, Germany

Augsburg Airport

latitude: 48-26N, longitude: 010-56E, elevation: 461 m

Current weather observation

The report was made 41 minutes ago, at 20:20 UTC
Wind 3 kt from the South
Temperature 0°C
Humidity 100%
Pressure 998 hPa
Visibility: 4000 m

METAR: EDMA 202020Z AUTO 17003KT 4000 // FEW006/// OVC017/// 00/M00 Q0998

Time: 22:01 (21:01 UTC)

Forecast

The report was made 4 hours and 1 minutes ago, at 17:00 UTC
Forecast valid from 20 at 18 UTC to 21 at 03 UTC
Wind 5 kt from the South
Visibility: 6000 m
Broken clouds at a height of 1200 ft
Becoming
from 20 at 18 UTC to 20 at 20 UTC
Visibility: 3500 m
Broken clouds at a height of 800 ft
light snow
Temporary
from 20 at 18 UTC to 21 at 01 UTC
Visibility: 1200 m
Broken clouds at a height of 400 ft
snow
Becoming
from 20 at 20 UTC to 20 at 22 UTC
Wind 5 kt from the West/Southwest

TAF: EDMA 201700Z 2018/2103 17005KT 6000 BKN012 BECMG 2018/2020 3500 -SN BKN008 TEMPO 2018/2101 1200 SN BKN004 BECMG 2020/2022 25005KT

Weather observations and forecasts of more than 4000 airports (METAR and TAF reports).

The available stations are represented by yellow and red dots on the map.

Hover mouse over dot to see the name of the station.

Then click to see weather observations and forecasts.

To change the map : click on the green buttons with a black cross to zoom in, on the green button with a dash to zoom out, or on the green arrows for adjacent maps.


METAR-TAF: